sensor_id;sensor_type;location;lat;lon;timestamp;pressure;altitude;pressure_sealevel;temperature;humidity
28648;BME280;17137;51.494;-0.262;2023-03-23T00:00:22;50398.53;;;-145.72;82.02
28648;BME280;17137;51.494;-0.262;2023-03-23T00:00:53;50396.44;;;-145.72;82.26
28648;BME280;17137;51.494;-0.262;2023-03-23T00:01:23;50390.52;;;-145.72;81.99
28648;BME280;17137;51.494;-0.262;2023-03-23T00:01:54;50393.73;;;-145.72;81.93
28648;BME280;17137;51.494;-0.262;2023-03-23T00:02:25;50390.03;;;-145.72;81.85
28648;BME280;17137;51.494;-0.262;2023-03-23T00:02:55;50396.19;;;-145.72;82.14
28648;BME280;17137;51.494;-0.262;2023-03-23T00:03:26;50394.34;;;-145.72;81.99
28648;BME280;17137;51.494;-0.262;2023-03-23T00:03:57;50392.74;;;-145.72;82.04
28648;BME280;17137;51.494;-0.262;2023-03-23T00:04:27;50398.78;;;-145.72;82.17
28648;BME280;17137;51.494;-0.262;2023-03-23T00:04:58;50396.44;;;-145.72;82.13
28648;BME280;17137;51.494;-0.262;2023-03-23T00:05:28;50401.49;;;-145.72;82.08
28648;BME280;17137;51.494;-0.262;2023-03-23T00:05:59;50401.25;;;-145.72;81.69
28648;BME280;17137;51.494;-0.262;2023-03-23T00:06:29;50407.78;;;-145.72;81.92
28648;BME280;17137;51.494;-0.262;2023-03-23T00:07:00;50402.11;;;-145.72;81.70
28648;BME280;17137;51.494;-0.262;2023-03-23T00:07:30;50405.31;;;-145.72;81.79
28648;BME280;17137;51.494;-0.262;2023-03-23T00:08:00;50406.18;;;-145.72;81.84
28648;BME280;17137;51.494;-0.262;2023-03-23T00:08:31;50405.81;;;-145.72;82.03
28648;BME280;17137;51.494;-0.262;2023-03-23T00:09:01;50400.38;;;-145.72;81.87
28648;BME280;17137;51.494;-0.262;2023-03-23T00:09:32;50402.60;;;-145.72;81.91
28648;BME280;17137;51.494;-0.262;2023-03-23T00:10:03;50409.14;;;-145.72;81.90
28648;BME280;17137;51.494;-0.262;2023-03-23T00:10:35;50403.46;;;-145.72;81.67
28648;BME280;17137;51.494;-0.262;2023-03-23T00:11:05;50414.31;;;-145.72;81.34
28648;BME280;17137;51.494;-0.262;2023-03-23T00:11:35;50409.50;;;-145.72;81.34
28648;BME280;17137;51.494;-0.262;2023-03-23T00:12:06;50408.89;;;-145.72;81.28
28648;BME280;17137;51.494;-0.262;2023-03-23T00:12:36;50415.05;;;-145.72;81.01
28648;BME280;17137;51.494;-0.262;2023-03-23T00:13:07;50409.50;;;-145.72;81.01
28648;BME280;17137;51.494;-0.262;2023-03-23T00:13:37;50410.00;;;-145.72;81.34
28648;BME280;17137;51.494;-0.262;2023-03-23T00:14:09;50406.05;;;-145.72;81.26
28648;BME280;17137;51.494;-0.262;2023-03-23T00:14:39;50398.04;;;-145.72;81.38
28648;BME280;17137;51.494;-0.262;2023-03-23T00:15:10;50395.58;;;-145.72;81.41
28648;BME280;17137;51.494;-0.262;2023-03-23T00:15:40;50396.31;;;-145.72;81.62
28648;BME280;17137;51.494;-0.262;2023-03-23T00:16:11;50399.64;;;-145.72;81.12
28648;BME280;17137;51.494;-0.262;2023-03-23T00:16:42;50401.25;;;-145.72;80.81
28648;BME280;17137;51.494;-0.262;2023-03-23T00:17:12;50390.40;;;-145.72;80.41
28648;BME280;17137;51.494;-0.262;2023-03-23T00:17:43;50397.92;;;-145.72;80.05
28648;BME280;17137;51.494;-0.262;2023-03-23T00:18:14;50392.12;;;-145.72;80.26
28648;BME280;17137;51.494;-0.262;2023-03-23T00:18:45;50398.78;;;-145.72;80.15
28648;BME280;17137;51.494;-0.262;2023-03-23T00:19:17;50400.88;;;-145.72;79.83
28648;BME280;17137;51.494;-0.262;2023-03-23T00:19:47;50405.93;;;-145.72;79.67
28648;BME280;17137;51.494;-0.262;2023-03-23T00:20:18;50392.49;;;-145.72;79.35
28648;BME280;17137;51.494;-0.262;2023-03-23T00:20:50;50397.30;;;-145.72;79.34
28648;BME280;17137;51.494;-0.262;2023-03-23T00:21:21;50391.38;;;-145.72;79.20
28648;BME280;17137;51.494;-0.262;2023-03-23T00:21:51;50395.08;;;-145.72;79.17
28648;BME280;17137;51.494;-0.262;2023-03-23T00:22:22;50402.85;;;-145.72;79.07
28648;BME280;17137;51.494;-0.262;2023-03-23T00:22:52;50392.49;;;-145.72;78.85
28648;BME280;17137;51.494;-0.262;2023-03-23T00:23:24;50400.63;;;-145.72;78.97
28648;BME280;17137;51.494;-0.262;2023-03-23T00:23:55;50396.44;;;-145.72;78.39
28648;BME280;17137;51.494;-0.262;2023-03-23T00:24:25;50395.94;;;-145.72;77.87
28648;BME280;17137;51.494;-0.262;2023-03-23T00:24:55;50401.86;;;-145.72;78.05
28648;BME280;17137;51.494;-0.262;2023-03-23T00:25:26;50395.08;;;-145.72;77.93
28648;BME280;17137;51.494;-0.262;2023-03-23T00:25:56;50402.23;;;-145.72;78.21
28648;BME280;17137;51.494;-0.262;2023-03-23T00:26:27;50397.18;;;-145.72;78.36
28648;BME280;17137;51.494;-0.262;2023-03-23T00:26:57;50413.33;;;-145.72;78.16
28648;BME280;17137;51.494;-0.262;2023-03-23T00:27:27;50409.75;;;-145.72;78.31
28648;BME280;17137;51.494;-0.262;2023-03-23T00:27:58;50414.56;;;-145.72;78.54
28648;BME280;17137;51.494;-0.262;2023-03-23T00:28:28;50410.12;;;-145.72;78.43
28648;BME280;17137;51.494;-0.262;2023-03-23T00:28:59;50408.77;;;-145.72;78.27
28648;BME280;17137;51.494;-0.262;2023-03-23T00:29:29;50406.92;;;-145.72;78.64
28648;BME280;17137;51.494;-0.262;2023-03-23T00:30:00;50404.82;;;-145.72;78.67
28648;BME280;17137;51.494;-0.262;2023-03-23T00:30:30;50394.47;;;-145.72;78.49
28648;BME280;17137;51.494;-0.262;2023-03-23T00:31:02;50405.44;;;-145.72;78.42
28648;BME280;17137;51.494;-0.262;2023-03-23T00:31:33;50409.50;;;-145.72;79.06
28648;BME280;17137;51.494;-0.262;2023-03-23T00:32:04;50411.35;;;-145.72;79.02
28648;BME280;17137;51.494;-0.262;2023-03-23T00:32:34;50402.60;;;-145.72;79.15
28648;BME280;17137;51.494;-0.262;2023-03-23T00:33:05;50403.96;;;-145.72;78.77
28648;BME280;17137;51.494;-0.262;2023-03-23T00:33:37;50406.42;;;-145.72;78.64
28648;BME280;17137;51.494;-0.262;2023-03-23T00:34:36;50405.31;;;-145.72;78.77
28648;BME280;17137;51.494;-0.262;2023-03-23T00:35:07;50412.09;;;-145.72;78.53
28648;BME280;17137;51.494;-0.262;2023-03-23T00:35:38;50407.53;;;-145.72;78.35
28648;BME280;17137;51.494;-0.262;2023-03-23T00:36:11;50389.66;;;-145.72;78.32
28648;BME280;17137;51.494;-0.262;2023-03-23T00:36:41;50407.29;;;-145.72;78.35
28648;BME280;17137;51.494;-0.262;2023-03-23T00:37:12;50414.68;;;-145.72;78.64
28648;BME280;17137;51.494;-0.262;2023-03-23T00:37:42;50409.26;;;-145.72;78.68
28648;BME280;17137;51.494;-0.262;2023-03-23T00:38:13;50406.42;;;-145.72;78.51
28648;BME280;17137;51.494;-0.262;2023-03-23T00:38:43;50401.25;;;-145.72;78.53
28648;BME280;17137;51.494;-0.262;2023-03-23T00:39:14;50404.70;;;-145.72;78.48
28648;BME280;17137;51.494;-0.262;2023-03-23T00:39:45;50418.87;;;-145.72;78.84
28648;BME280;17137;51.494;-0.262;2023-03-23T00:40:15;50403.83;;;-145.72;78.78
28648;BME280;17137;51.494;-0.262;2023-03-23T00:40:46;50398.53;;;-145.72;78.89
28648;BME280;17137;51.494;-0.262;2023-03-23T00:41:16;50408.64;;;-145.72;79.06
28648;BME280;17137;51.494;-0.262;2023-03-23T00:41:47;50400.75;;;-145.72;78.86
28648;BME280;17137;51.494;-0.262;2023-03-23T00:42:51;50417.02;;;-145.72;78.41
28648;BME280;17137;51.494;-0.262;2023-03-23T00:43:21;50394.71;;;-145.72;78.38
28648;BME280;17137;51.494;-0.262;2023-03-23T00:43:52;50397.42;;;-145.72;78.12
28648;BME280;17137;51.494;-0.262;2023-03-23T00:44:52;50410.49;;;-145.72;78.10
28648;BME280;17137;51.494;-0.262;2023-03-23T00:45:22;50410.74;;;-145.72;78.33
28648;BME280;17137;51.494;-0.262;2023-03-23T00:45:52;50410.61;;;-145.72;78.32
28648;BME280;17137;51.494;-0.262;2023-03-23T00:46:23;50393.60;;;-145.72;78.52
28648;BME280;17137;51.494;-0.262;2023-03-23T00:46:54;50399.77;;;-145.72;78.49
28648;BME280;17137;51.494;-0.262;2023-03-23T00:47:25;50401.25;;;-145.72;78.59
28648;BME280;17137;51.494;-0.262;2023-03-23T00:47:55;50411.60;;;-145.72;78.77
28648;BME280;17137;51.494;-0.262;2023-03-23T00:48:26;50389.90;;;-145.72;78.44
28648;BME280;17137;51.494;-0.262;2023-03-23T00:48:57;50396.07;;;-145.72;78.52
28648;BME280;17137;51.494;-0.262;2023-03-23T00:49:27;50401.49;;;-145.72;79.03
28648;BME280;17137;51.494;-0.262;2023-03-23T00:49:57;50400.63;;;-145.72;78.88
28648;BME280;17137;51.494;-0.262;2023-03-23T00:50:28;50402.23;;;-145.72;78.23
28648;BME280;17137;51.494;-0.262;2023-03-23T00:50:58;50406.67;;;-145.72;77.87
28648;BME280;17137;51.494;-0.262;2023-03-23T00:51:29;50408.52;;;-145.72;77.61
28648;BME280;17137;51.494;-0.262;2023-03-23T00:51:59;50398.53;;;-145.72;77.66
28648;BME280;17137;51.494;-0.262;2023-03-23T00:52:30;50398.16;;;-145.72;77.84
28648;BME280;17137;51.494;-0.262;2023-03-23T00:53:00;50419.49;;;-145.72;78.56
28648;BME280;17137;51.494;-0.262;2023-03-23T00:53:31;50409.26;;;-145.72;78.30
28648;BME280;17137;51.494;-0.262;2023-03-23T00:54:01;50404.57;;;-145.72;78.03
28648;BME280;17137;51.494;-0.262;2023-03-23T00:54:32;50400.75;;;-145.72;77.88
28648;BME280;17137;51.494;-0.262;2023-03-23T00:55:03;50389.53;;;-145.72;77.96
28648;BME280;17137;51.494;-0.262;2023-03-23T00:55:34;50410.37;;;-145.72;77.90
28648;BME280;17137;51.494;-0.262;2023-03-23T00:56:05;50398.53;;;-145.72;77.75
28648;BME280;17137;51.494;-0.262;2023-03-23T00:56:36;50405.07;;;-145.72;77.87
28648;BME280;17137;51.494;-0.262;2023-03-23T00:57:07;50405.31;;;-145.72;77.98
28648;BME280;17137;51.494;-0.262;2023-03-23T00:57:37;50415.42;;;-145.72;78.07
28648;BME280;17137;51.494;-0.262;2023-03-23T00:58:08;50399.27;;;-145.72;78.16
28648;BME280;17137;51.494;-0.262;2023-03-23T00:58:38;50413.20;;;-145.72;78.42
28648;BME280;17137;51.494;-0.262;2023-03-23T00:59:09;50399.40;;;-145.72;78.48
28648;BME280;17137;51.494;-0.262;2023-03-23T00:59:39;50407.90;;;-145.72;78.22
28648;BME280;17137;51.494;-0.262;2023-03-23T01:00:11;50411.23;;;-145.72;78.16
28648;BME280;17137;51.494;-0.262;2023-03-23T01:00:42;50409.50;;;-145.72;77.62
28648;BME280;17137;51.494;-0.262;2023-03-23T01:01:14;50400.88;;;-145.72;77.53
28648;BME280;17137;51.494;-0.262;2023-03-23T01:01:45;50391.51;;;-145.72;77.19
28648;BME280;17137;51.494;-0.262;2023-03-23T01:02:16;50397.67;;;-145.72;76.64
28648;BME280;17137;51.494;-0.262;2023-03-23T01:02:46;50409.01;;;-145.72;77.03
28648;BME280;17137;51.494;-0.262;2023-03-23T01:03:16;50408.89;;;-145.72;76.71
28648;BME280;17137;51.494;-0.262;2023-03-23T01:03:47;50399.15;;;-145.72;76.73
28648;BME280;17137;51.494;-0.262;2023-03-23T01:04:17;50390.40;;;-145.72;76.66
28648;BME280;17137;51.494;-0.262;2023-03-23T01:04:47;50404.57;;;-145.72;76.78
28648;BME280;17137;51.494;-0.262;2023-03-23T01:05:18;50389.90;;;-145.72;76.55
28648;BME280;17137;51.494;-0.262;2023-03-23T01:05:49;50394.96;;;-145.72;75.71
28648;BME280;17137;51.494;-0.262;2023-03-23T01:06:24;50396.68;;;-145.72;75.36
28648;BME280;17137;51.494;-0.262;2023-03-23T01:06:54;50408.64;;;-145.72;75.17
28648;BME280;17137;51.494;-0.262;2023-03-23T01:07:24;50402.11;;;-145.72;75.23
28648;BME280;17137;51.494;-0.262;2023-03-23T01:07:55;50402.48;;;-145.72;75.46
28648;BME280;17137;51.494;-0.262;2023-03-23T01:08:25;50396.31;;;-145.72;75.68
28648;BME280;17137;51.494;-0.262;2023-03-23T01:08:55;50394.34;;;-145.72;76.02
28648;BME280;17137;51.494;-0.262;2023-03-23T01:09:26;50401.25;;;-145.72;76.35
28648;BME280;17137;51.494;-0.262;2023-03-23T01:09:57;50401.12;;;-145.72;76.82
28648;BME280;17137;51.494;-0.262;2023-03-23T01:10:28;50408.15;;;-145.72;76.97
28648;BME280;17137;51.494;-0.262;2023-03-23T01:11:03;50402.36;;;-145.72;76.65
28648;BME280;17137;51.494;-0.262;2023-03-23T01:11:34;50398.29;;;-145.72;75.95
28648;BME280;17137;51.494;-0.262;2023-03-23T01:12:05;50395.94;;;-145.72;75.43
28648;BME280;17137;51.494;-0.262;2023-03-23T01:12:35;50392.99;;;-145.72;75.26
28648;BME280;17137;51.494;-0.262;2023-03-23T01:13:06;50405.68;;;-145.72;75.00
28648;BME280;17137;51.494;-0.262;2023-03-23T01:13:36;50393.85;;;-145.72;74.87
28648;BME280;17137;51.494;-0.262;2023-03-23T01:14:07;50399.03;;;-145.72;74.90
28648;BME280;17137;51.494;-0.262;2023-03-23T01:15:07;50406.05;;;-145.72;74.71
28648;BME280;17137;51.494;-0.262;2023-03-23T01:15:38;50405.19;;;-145.72;74.54
28648;BME280;17137;51.494;-0.262;2023-03-23T01:16:08;50408.27;;;-145.72;74.98
28648;BME280;17137;51.494;-0.262;2023-03-23T01:16:39;50406.55;;;-145.72;75.15
28648;BME280;17137;51.494;-0.262;2023-03-23T01:17:09;50405.81;;;-145.72;75.29
28648;BME280;17137;51.494;-0.262;2023-03-23T01:17:40;50397.79;;;-145.72;75.13
28648;BME280;17137;51.494;-0.262;2023-03-23T01:18:10;50402.85;;;-145.72;75.15
28648;BME280;17137;51.494;-0.262;2023-03-23T01:18:40;50402.60;;;-145.72;75.38
28648;BME280;17137;51.494;-0.262;2023-03-23T01:19:11;50414.07;;;-145.72;75.85
28648;BME280;17137;51.494;-0.262;2023-03-23T01:19:41;50411.72;;;-145.72;76.08
28648;BME280;17137;51.494;-0.262;2023-03-23T01:20:12;50410.12;;;-145.72;76.08
28648;BME280;17137;51.494;-0.262;2023-03-23T01:20:42;50409.63;;;-145.72;76.08
28648;BME280;17137;51.494;-0.262;2023-03-23T01:21:14;50420.23;;;-145.72;75.88
28648;BME280;17137;51.494;-0.262;2023-03-23T01:21:45;50412.46;;;-145.72;75.97
28648;BME280;17137;51.494;-0.262;2023-03-23T01:22:15;50407.53;;;-145.72;75.95
28648;BME280;17137;51.494;-0.262;2023-03-23T01:22:45;50399.40;;;-145.72;75.79
28648;BME280;17137;51.494;-0.262;2023-03-23T01:23:16;50399.89;;;-145.72;75.92
28648;BME280;17137;51.494;-0.262;2023-03-23T01:23:47;50403.09;;;-145.72;76.04
28648;BME280;17137;51.494;-0.262;2023-03-23T01:24:17;50402.85;;;-145.72;76.04
28648;BME280;17137;51.494;-0.262;2023-03-23T01:24:48;50409.63;;;-145.72;75.94
28648;BME280;17137;51.494;-0.262;2023-03-23T01:25:18;50406.67;;;-145.72;75.21
28648;BME280;17137;51.494;-0.262;2023-03-23T01:25:49;50403.34;;;-145.72;74.76
28648;BME280;17137;51.494;-0.262;2023-03-23T01:26:21;50408.89;;;-145.72;74.60
28648;BME280;17137;51.494;-0.262;2023-03-23T01:26:52;50408.15;;;-145.72;74.60
28648;BME280;17137;51.494;-0.262;2023-03-23T01:27:22;50403.83;;;-145.72;74.77
28648;BME280;17137;51.494;-0.262;2023-03-23T01:27:52;50405.31;;;-145.72;75.18
28648;BME280;17137;51.494;-0.262;2023-03-23T01:28:22;50415.05;;;-145.72;75.49
28648;BME280;17137;51.494;-0.262;2023-03-23T01:28:53;50416.28;;;-145.72;75.29
28648;BME280;17137;51.494;-0.262;2023-03-23T01:29:23;50405.56;;;-145.72;75.16
28648;BME280;17137;51.494;-0.262;2023-03-23T01:29:54;50419.12;;;-145.72;75.32
28648;BME280;17137;51.494;-0.262;2023-03-23T01:30:25;50413.08;;;-145.72;75.25
28648;BME280;17137;51.494;-0.262;2023-03-23T01:30:59;50409.14;;;-145.72;75.05
28648;BME280;17137;51.494;-0.262;2023-03-23T01:31:30;50415.30;;;-145.72;74.66
28648;BME280;17137;51.494;-0.262;2023-03-23T01:32:00;50400.26;;;-145.72;74.52
28648;BME280;17137;51.494;-0.262;2023-03-23T01:32:31;50420.35;;;-145.72;74.80
28648;BME280;17137;51.494;-0.262;2023-03-23T01:33:01;50407.90;;;-145.72;74.61
28648;BME280;17137;51.494;-0.262;2023-03-23T01:33:32;50412.22;;;-145.72;74.43
28648;BME280;17137;51.494;-0.262;2023-03-23T01:34:03;50410.37;;;-145.72;74.63
28648;BME280;17137;51.494;-0.262;2023-03-23T01:34:33;50410.86;;;-145.72;74.57
28648;BME280;17137;51.494;-0.262;2023-03-23T01:35:04;50409.38;;;-145.72;74.60
28648;BME280;17137;51.494;-0.262;2023-03-23T01:35:37;50419.86;;;-145.72;74.91
28648;BME280;17137;51.494;-0.262;2023-03-23T01:36:11;50411.85;;;-145.72;75.07
28648;BME280;17137;51.494;-0.262;2023-03-23T01:36:42;50405.31;;;-145.72;74.70
28648;BME280;17137;51.494;-0.262;2023-03-23T01:37:12;50399.15;;;-145.72;74.44
28648;BME280;17137;51.494;-0.262;2023-03-23T01:37:43;50414.07;;;-145.72;74.33
28648;BME280;17137;51.494;-0.262;2023-03-23T01:38:13;50399.40;;;-145.72;73.98
28648;BME280;17137;51.494;-0.262;2023-03-23T01:38:45;50410.12;;;-145.72;74.16
28648;BME280;17137;51.494;-0.262;2023-03-23T01:39:16;50410.00;;;-145.72;74.38
28648;BME280;17137;51.494;-0.262;2023-03-23T01:39:46;50417.76;;;-145.72;74.84
28648;BME280;17137;51.494;-0.262;2023-03-23T01:40:17;50411.23;;;-145.72;75.02
28648;BME280;17137;51.494;-0.262;2023-03-23T01:40:47;50408.27;;;-145.72;74.55
28648;BME280;17137;51.494;-0.262;2023-03-23T01:41:18;50413.20;;;-145.72;74.83
28648;BME280;17137;51.494;-0.262;2023-03-23T01:41:49;50416.53;;;-145.72;75.03
28648;BME280;17137;51.494;-0.262;2023-03-23T01:42:21;50403.96;;;-145.72;75.13
28648;BME280;17137;51.494;-0.262;2023-03-23T01:42:52;50408.40;;;-145.72;75.14
28648;BME280;17137;51.494;-0.262;2023-03-23T01:43:22;50419.37;;;-145.72;75.10
28648;BME280;17137;51.494;-0.262;2023-03-23T01:43:56;50410.00;;;-145.72;75.25
28648;BME280;17137;51.494;-0.262;2023-03-23T01:45:24;50402.60;;;-145.72;75.78
28648;BME280;17137;51.494;-0.262;2023-03-23T01:45:55;50407.04;;;-145.72;73.92
28648;BME280;17137;51.494;-0.262;2023-03-23T01:46:27;50399.77;;;-145.72;73.85
28648;BME280;17137;51.494;-0.262;2023-03-23T01:46:57;50415.05;;;-145.72;73.98
28648;BME280;17137;51.494;-0.262;2023-03-23T01:47:28;50397.79;;;-145.72;74.04
28648;BME280;17137;51.494;-0.262;2023-03-23T01:48:03;50411.72;;;-145.72;74.37
28648;BME280;17137;51.494;-0.262;2023-03-23T01:48:36;50407.04;;;-145.72;74.13
28648;BME280;17137;51.494;-0.262;2023-03-23T01:49:10;50418.87;;;-145.72;74.42
28648;BME280;17137;51.494;-0.262;2023-03-23T01:49:43;50424.67;;;-145.72;74.44
28648;BME280;17137;51.494;-0.262;2023-03-23T01:50:15;50411.48;;;-145.72;74.34
28648;BME280;17137;51.494;-0.262;2023-03-23T01:50:51;50411.85;;;-145.72;74.39
28648;BME280;17137;51.494;-0.262;2023-03-23T01:51:24;50413.08;;;-145.72;74.32
28648;BME280;17137;51.494;-0.262;2023-03-23T01:52:00;50409.14;;;-145.72;74.45
28648;BME280;17137;51.494;-0.262;2023-03-23T01:52:32;50410.74;;;-145.72;74.71
28648;BME280;17137;51.494;-0.262;2023-03-23T01:53:04;50420.72;;;-145.72;75.14
28648;BME280;17137;51.494;-0.262;2023-03-23T01:53:39;50417.76;;;-145.72;75.30
28648;BME280;17137;51.494;-0.262;2023-03-23T01:54:14;50416.16;;;-145.72;75.44
28648;BME280;17137;51.494;-0.262;2023-03-23T01:54:51;50406.30;;;-145.72;75.37
28648;BME280;17137;51.494;-0.262;2023-03-23T01:55:24;50412.22;;;-145.72;75.52
28648;BME280;17137;51.494;-0.262;2023-03-23T01:55:57;50411.11;;;-145.72;75.09
28648;BME280;17137;51.494;-0.262;2023-03-23T01:56:32;50398.41;;;-145.72;74.39
28648;BME280;17137;51.494;-0.262;2023-03-23T01:57:07;50414.19;;;-145.72;74.30
28648;BME280;17137;51.494;-0.262;2023-03-23T01:57:39;50403.46;;;-145.72;74.27
28648;BME280;17137;51.494;-0.262;2023-03-23T01:58:10;50407.66;;;-145.72;74.54
28648;BME280;17137;51.494;-0.262;2023-03-23T01:58:42;50408.52;;;-145.72;74.84
28648;BME280;17137;51.494;-0.262;2023-03-23T01:59:13;50408.64;;;-145.72;74.92
28648;BME280;17137;51.494;-0.262;2023-03-23T01:59:47;50404.94;;;-145.72;75.00
28648;BME280;17137;51.494;-0.262;2023-03-23T02:00:20;50414.07;;;-145.72;76.29
28648;BME280;17137;51.494;-0.262;2023-03-23T02:00:50;50401.37;;;-145.72;76.24
28648;BME280;17137;51.494;-0.262;2023-03-23T02:01:21;50411.85;;;-145.72;76.16
28648;BME280;17137;51.494;-0.262;2023-03-23T02:01:53;50405.68;;;-145.72;75.97
28648;BME280;17137;51.494;-0.262;2023-03-23T02:02:25;50414.31;;;-145.72;75.82
28648;BME280;17137;51.494;-0.262;2023-03-23T02:02:56;50420.48;;;-145.72;75.46
28648;BME280;17137;51.494;-0.262;2023-03-23T02:03:28;50408.27;;;-145.72;75.29
28648;BME280;17137;51.494;-0.262;2023-03-23T02:03:58;50411.11;;;-145.72;75.38
28648;BME280;17137;51.494;-0.262;2023-03-23T02:04:30;50417.15;;;-145.72;75.04
28648;BME280;17137;51.494;-0.262;2023-03-23T02:05:06;50409.01;;;-145.72;74.66
28648;BME280;17137;51.494;-0.262;2023-03-23T02:05:40;50425.78;;;-145.72;74.35
28648;BME280;17137;51.494;-0.262;2023-03-23T02:06:11;50412.09;;;-145.72;74.28
28648;BME280;17137;51.494;-0.262;2023-03-23T02:06:42;50422.70;;;-145.72;74.75
28648;BME280;17137;51.494;-0.262;2023-03-23T02:07:15;50418.38;;;-145.72;74.70
28648;BME280;17137;51.494;-0.262;2023-03-23T02:07:47;50414.56;;;-145.72;74.62
28648;BME280;17137;51.494;-0.262;2023-03-23T02:08:19;50418.75;;;-145.72;74.68
28648;BME280;17137;51.494;-0.262;2023-03-23T02:08:51;50424.05;;;-145.72;74.86
28648;BME280;17137;51.494;-0.262;2023-03-23T02:09:22;50429.84;;;-145.72;75.05
28648;BME280;17137;51.494;-0.262;2023-03-23T02:09:52;50413.57;;;-145.72;74.79
28648;BME280;17137;51.494;-0.262;2023-03-23T02:10:22;50420.72;;;-145.72;74.41
28648;BME280;17137;51.494;-0.262;2023-03-23T02:10:53;50426.64;;;-145.72;74.43
28648;BME280;17137;51.494;-0.262;2023-03-23T02:11:24;50417.39;;;-145.72;74.14
28648;BME280;17137;51.494;-0.262;2023-03-23T02:11:54;50414.68;;;-145.72;74.24
28648;BME280;17137;51.494;-0.262;2023-03-23T02:12:25;50431.20;;;-145.72;74.27
28648;BME280;17137;51.494;-0.262;2023-03-23T02:12:55;50417.02;;;-145.72;73.99
28648;BME280;17137;51.494;-0.262;2023-03-23T02:13:26;50418.87;;;-145.72;74.08
28648;BME280;17137;51.494;-0.262;2023-03-23T02:13:57;50428.24;;;-145.72;74.46
28648;BME280;17137;51.494;-0.262;2023-03-23T02:14:28;50421.83;;;-145.72;74.39
28648;BME280;17137;51.494;-0.262;2023-03-23T02:14:59;50420.97;;;-145.72;74.58
28648;BME280;17137;51.494;-0.262;2023-03-23T02:15:36;50427.13;;;-145.72;74.71
28648;BME280;17137;51.494;-0.262;2023-03-23T02:16:15;50414.19;;;-145.72;75.33
28648;BME280;17137;51.494;-0.262;2023-03-23T02:16:55;50428.74;;;-145.72;75.71
28648;BME280;17137;51.494;-0.262;2023-03-23T02:17:33;50420.48;;;-145.72;75.78
28648;BME280;17137;51.494;-0.262;2023-03-23T02:18:12;50418.75;;;-145.72;75.60
28648;BME280;17137;51.494;-0.262;2023-03-23T02:18:54;50430.46;;;-145.72;75.46
28648;BME280;17137;51.494;-0.262;2023-03-23T02:19:42;50416.04;;;-145.72;74.48
28648;BME280;17137;51.494;-0.262;2023-03-23T02:20:37;50411.48;;;-145.72;73.85
28648;BME280;17137;51.494;-0.262;2023-03-23T02:21:25;50420.48;;;-145.72;73.99
28648;BME280;17137;51.494;-0.262;2023-03-23T02:24:56;50418.13;;;-145.72;73.84
28648;BME280;17137;51.494;-0.262;2023-03-23T02:25:40;50425.90;;;-145.72;73.68
28648;BME280;17137;51.494;-0.262;2023-03-23T02:26:29;50425.04;;;-145.72;73.39
28648;BME280;17137;51.494;-0.262;2023-03-23T02:27:07;50413.33;;;-145.72;73.28
28648;BME280;17137;51.494;-0.262;2023-03-23T02:28:06;50414.81;;;-145.72;73.14
28648;BME280;17137;51.494;-0.262;2023-03-23T02:29:37;50424.91;;;-145.72;72.77
28648;BME280;17137;51.494;-0.262;2023-03-23T02:30:24;50419.98;;;-145.72;73.12
28648;BME280;17137;51.494;-0.262;2023-03-23T02:31:11;50427.63;;;-145.72;73.67
28648;BME280;17137;51.494;-0.262;2023-03-23T02:31:56;50415.05;;;-145.72;73.64
28648;BME280;17137;51.494;-0.262;2023-03-23T02:32:50;50431.32;;;-145.72;73.91
28648;BME280;17137;51.494;-0.262;2023-03-23T02:33:35;50430.21;;;-145.72;74.76
28648;BME280;17137;51.494;-0.262;2023-03-23T02:34:09;50442.05;;;-145.72;74.42
28648;BME280;17137;51.494;-0.262;2023-03-23T02:34:46;50416.28;;;-145.72;74.53
28648;BME280;17137;51.494;-0.262;2023-03-23T02:35:21;50427.63;;;-145.72;74.82
28648;BME280;17137;51.494;-0.262;2023-03-23T02:35:56;50420.60;;;-145.72;74.65
28648;BME280;17137;51.494;-0.262;2023-03-23T02:36:30;50426.76;;;-145.72;74.51
28648;BME280;17137;51.494;-0.262;2023-03-23T02:37:05;50426.15;;;-145.72;74.56
28648;BME280;17137;51.494;-0.262;2023-03-23T02:37:42;50430.09;;;-145.72;74.48
28648;BME280;17137;51.494;-0.262;2023-03-23T02:38:19;50430.83;;;-145.72;74.76
28648;BME280;17137;51.494;-0.262;2023-03-23T02:38:57;50434.16;;;-145.72;75.12
28648;BME280;17137;51.494;-0.262;2023-03-23T02:39:33;50431.32;;;-145.72;75.04
28648;BME280;17137;51.494;-0.262;2023-03-23T02:40:07;50435.89;;;-145.72;75.24
28648;BME280;17137;51.494;-0.262;2023-03-23T02:40:41;50434.41;;;-145.72;75.15
28648;BME280;17137;51.494;-0.262;2023-03-23T02:41:14;50439.71;;;-145.72;75.33
28648;BME280;17137;51.494;-0.262;2023-03-23T02:41:49;50430.83;;;-145.72;75.29
28648;BME280;17137;51.494;-0.262;2023-03-23T02:42:24;50432.19;;;-145.72;75.41
28648;BME280;17137;51.494;-0.262;2023-03-23T02:42:57;50431.20;;;-145.72;75.25
28648;BME280;17137;51.494;-0.262;2023-03-23T02:43:42;50437.36;;;-145.72;75.11
28648;BME280;17137;51.494;-0.262;2023-03-23T02:44:15;50438.23;;;-145.72;75.57
28648;BME280;17137;51.494;-0.262;2023-03-23T02:44:46;50446.98;;;-145.72;75.68
28648;BME280;17137;51.494;-0.262;2023-03-23T02:45:19;50443.41;;;-145.72;75.72
28648;BME280;17137;51.494;-0.262;2023-03-23T02:45:52;50440.32;;;-145.72;76.01
28648;BME280;17137;51.494;-0.262;2023-03-23T02:46:25;50438.23;;;-145.72;76.56
28648;BME280;17137;51.494;-0.262;2023-03-23T02:46:57;50453.27;;;-145.72;76.73
28648;BME280;17137;51.494;-0.262;2023-03-23T02:47:30;50443.28;;;-145.72;76.53
28648;BME280;17137;51.494;-0.262;2023-03-23T02:48:03;50431.57;;;-145.72;76.34
28648;BME280;17137;51.494;-0.262;2023-03-23T02:48:35;50443.41;;;-145.72;76.82
28648;BME280;17137;51.494;-0.262;2023-03-23T02:49:08;50450.31;;;-145.72;76.73
28648;BME280;17137;51.494;-0.262;2023-03-23T02:49:41;50439.95;;;-145.72;76.99
28648;BME280;17137;51.494;-0.262;2023-03-23T02:50:15;50441.93;;;-145.72;77.37
28648;BME280;17137;51.494;-0.262;2023-03-23T02:50:49;50452.40;;;-145.72;77.20
28648;BME280;17137;51.494;-0.262;2023-03-23T02:51:22;50445.50;;;-145.72;77.37